sensor_id;sensor_type;location;lat;lon;timestamp;pressure;altitude;pressure_sealevel;temperature;humidity
70200;BME280;57587;55.688;37.600;2022-08-19T00:01:46;100105.41;;;22.14;44.34
70200;BME280;57587;55.688;37.600;2022-08-19T00:04:21;100095.81;;;22.11;44.42
70200;BME280;57587;55.688;37.600;2022-08-19T00:06:49;100103.75;;;22.13;44.76
70200;BME280;57587;55.688;37.600;2022-08-19T00:09:18;100101.53;;;22.09;44.82
70200;BME280;57587;55.688;37.600;2022-08-19T00:11:46;100101.75;;;22.08;45.08
70200;BME280;57587;55.688;37.600;2022-08-19T00:14:15;100109.59;;;22.04;45.14
70200;BME280;57587;55.688;37.600;2022-08-19T00:16:44;100103.22;;;21.99;44.97
70200;BME280;57587;55.688;37.600;2022-08-19T00:19:12;100098.88;;;21.98;45.09
70200;BME280;57587;55.688;37.600;2022-08-19T00:21:40;100090.03;;;21.91;45.16
70200;BME280;57587;55.688;37.600;2022-08-19T00:24:09;100102.34;;;21.93;45.28
70200;BME280;57587;55.688;37.600;2022-08-19T00:26:37;100109.44;;;21.94;44.96
70200;BME280;57587;55.688;37.600;2022-08-19T00:29:06;100113.25;;;21.93;44.98
70200;BME280;57587;55.688;37.600;2022-08-19T00:31:33;100114.56;;;21.91;45.26
70200;BME280;57587;55.688;37.600;2022-08-19T00:34:01;100108.78;;;21.87;45.12
70200;BME280;57587;55.688;37.600;2022-08-19T00:36:28;100114.78;;;21.89;45.44
70200;BME280;57587;55.688;37.600;2022-08-19T00:38:55;100124.63;;;21.90;45.49
70200;BME280;57587;55.688;37.600;2022-08-19T00:41:23;100119.19;;;21.90;45.14
70200;BME280;57587;55.688;37.600;2022-08-19T00:44:11;100116.69;;;21.88;45.21
70200;BME280;57587;55.688;37.600;2022-08-19T00:46:43;100124.53;;;21.85;45.25
70200;BME280;57587;55.688;37.600;2022-08-19T00:51:54;100131.53;;;21.81;45.59
70200;BME280;57587;55.688;37.600;2022-08-19T00:54:23;100132.84;;;21.78;45.66
70200;BME280;57587;55.688;37.600;2022-08-19T00:57:01;100121.63;;;21.75;45.66
70200;BME280;57587;55.688;37.600;2022-08-19T00:59:30;100138.44;;;21.72;45.66
70200;BME280;57587;55.688;37.600;2022-08-19T01:02:18;100144.38;;;21.69;45.71
70200;BME280;57587;55.688;37.600;2022-08-19T01:04:54;100154.09;;;21.64;45.98
70200;BME280;57587;55.688;37.600;2022-08-19T01:07:21;100154.00;;;21.59;46.04
70200;BME280;57587;55.688;37.600;2022-08-19T01:09:49;100158.50;;;21.54;46.12
70200;BME280;57587;55.688;37.600;2022-08-19T01:12:16;100152.13;;;21.48;46.42
70200;BME280;57587;55.688;37.600;2022-08-19T01:14:46;100157.50;;;21.43;46.67
70200;BME280;57587;55.688;37.600;2022-08-19T01:17:14;100163.41;;;21.40;46.86
70200;BME280;57587;55.688;37.600;2022-08-19T01:19:46;100157.59;;;21.36;46.99
70200;BME280;57587;55.688;37.600;2022-08-19T01:25:01;100161.50;;;21.29;47.10
70200;BME280;57587;55.688;37.600;2022-08-19T01:27:40;100164.72;;;21.26;47.14
70200;BME280;57587;55.688;37.600;2022-08-19T01:30:17;100159.16;;;21.21;47.08
70200;BME280;57587;55.688;37.600;2022-08-19T01:32:44;100167.22;;;21.15;47.31
70200;BME280;57587;55.688;37.600;2022-08-19T01:35:12;100161.78;;;21.15;47.40
70200;BME280;57587;55.688;37.600;2022-08-19T01:37:49;100162.72;;;21.09;46.76
70200;BME280;57587;55.688;37.600;2022-08-19T01:40:17;100154.78;;;21.08;47.07
70200;BME280;57587;55.688;37.600;2022-08-19T01:42:48;100155.53;;;21.03;47.16
70200;BME280;57587;55.688;37.600;2022-08-19T01:45:16;100154.44;;;21.04;47.16
70200;BME280;57587;55.688;37.600;2022-08-19T01:47:44;100138.59;;;21.01;47.09
70200;BME280;57587;55.688;37.600;2022-08-19T01:50:27;100144.03;;;21.01;47.40
70200;BME280;57587;55.688;37.600;2022-08-19T01:52:54;100148.66;;;21.01;47.48
70200;BME280;57587;55.688;37.600;2022-08-19T01:55:37;100139.31;;;20.96;47.46
70200;BME280;57587;55.688;37.600;2022-08-19T01:58:13;100136.25;;;20.93;47.19
70200;BME280;57587;55.688;37.600;2022-08-19T02:00:42;100132.94;;;20.91;47.38
70200;BME280;57587;55.688;37.600;2022-08-19T02:03:09;100130.72;;;20.88;47.19
70200;BME280;57587;55.688;37.600;2022-08-19T02:05:41;100131.66;;;20.93;47.18
70200;BME280;57587;55.688;37.600;2022-08-19T02:08:09;100119.09;;;20.92;47.29
70200;BME280;57587;55.688;37.600;2022-08-19T02:10:40;100112.22;;;20.90;47.49
70200;BME280;57587;55.688;37.600;2022-08-19T02:13:07;100116.63;;;20.91;47.21
70200;BME280;57587;55.688;37.600;2022-08-19T02:15:54;100151.16;;;20.90;47.54
70200;BME280;57587;55.688;37.600;2022-08-19T02:18:22;100164.38;;;20.87;47.38
70200;BME280;57587;55.688;37.600;2022-08-19T02:20:53;100173.88;;;20.84;47.51
70200;BME280;57587;55.688;37.600;2022-08-19T02:23:21;100173.75;;;20.79;47.83
70200;BME280;57587;55.688;37.600;2022-08-19T02:25:49;100173.38;;;20.76;48.19
70200;BME280;57587;55.688;37.600;2022-08-19T02:28:17;100180.25;;;20.66;48.42
70200;BME280;57587;55.688;37.600;2022-08-19T02:30:45;100173.72;;;20.67;48.54
70200;BME280;57587;55.688;37.600;2022-08-19T02:33:12;100175.84;;;20.65;48.27
70200;BME280;57587;55.688;37.600;2022-08-19T02:35:43;100175.38;;;20.68;48.30
70200;BME280;57587;55.688;37.600;2022-08-19T02:38:11;100174.34;;;20.69;48.05
70200;BME280;57587;55.688;37.600;2022-08-19T02:40:55;100171.84;;;20.68;48.09
70200;BME280;57587;55.688;37.600;2022-08-19T02:43:24;100173.50;;;20.69;48.15
70200;BME280;57587;55.688;37.600;2022-08-19T02:45:51;100178.09;;;20.68;48.11
70200;BME280;57587;55.688;37.600;2022-08-19T02:48:20;100174.81;;;20.66;48.34
70200;BME280;57587;55.688;37.600;2022-08-19T02:50:49;100171.47;;;20.64;48.39
70200;BME280;57587;55.688;37.600;2022-08-19T02:53:24;100179.03;;;20.62;48.30
70200;BME280;57587;55.688;37.600;2022-08-19T02:55:52;100181.53;;;20.64;48.48
70200;BME280;57587;55.688;37.600;2022-08-19T02:58:21;100179.63;;;20.64;48.69
70200;BME280;57587;55.688;37.600;2022-08-19T03:00:51;100175.28;;;20.63;48.72
70200;BME280;57587;55.688;37.600;2022-08-19T03:03:19;100174.44;;;20.63;48.53
70200;BME280;57587;55.688;37.600;2022-08-19T03:05:47;100179.63;;;20.64;48.52
70200;BME280;57587;55.688;37.600;2022-08-19T03:08:23;100176.91;;;20.64;48.53
70200;BME280;57587;55.688;37.600;2022-08-19T03:10:52;100175.28;;;20.63;48.35
70200;BME280;57587;55.688;37.600;2022-08-19T03:13:20;100180.72;;;20.63;48.47
70200;BME280;57587;55.688;37.600;2022-08-19T03:15:48;100174.66;;;20.61;48.50
70200;BME280;57587;55.688;37.600;2022-08-19T03:18:16;100187.56;;;20.66;48.54
70200;BME280;57587;55.688;37.600;2022-08-19T03:20:46;100194.78;;;20.72;48.48
70200;BME280;57587;55.688;37.600;2022-08-19T03:23:14;100194.31;;;20.75;48.33
70200;BME280;57587;55.688;37.600;2022-08-19T03:25:45;100196.09;;;20.81;48.26
70200;BME280;57587;55.688;37.600;2022-08-19T03:28:28;100201.63;;;20.86;48.19
70200;BME280;57587;55.688;37.600;2022-08-19T03:31:07;100189.72;;;20.87;48.36
70200;BME280;57587;55.688;37.600;2022-08-19T03:33:55;100197.75;;;20.94;48.26
70200;BME280;57587;55.688;37.600;2022-08-19T03:36:25;100193.97;;;20.95;48.22
70200;BME280;57587;55.688;37.600;2022-08-19T03:38:57;100196.06;;;20.93;48.40
70200;BME280;57587;55.688;37.600;2022-08-19T03:41:35;100185.19;;;20.93;48.49
70200;BME280;57587;55.688;37.600;2022-08-19T03:44:13;100183.34;;;20.93;48.26
70200;BME280;57587;55.688;37.600;2022-08-19T03:46:45;100189.69;;;20.99;48.40
70200;BME280;57587;55.688;37.600;2022-08-19T03:49:13;100184.97;;;21.06;48.35
70200;BME280;57587;55.688;37.600;2022-08-19T03:51:41;100192.88;;;21.08;48.23
70200;BME280;57587;55.688;37.600;2022-08-19T03:54:12;100193.00;;;21.13;48.18
70200;BME280;57587;55.688;37.600;2022-08-19T03:56:42;100189.00;;;21.15;48.00
70200;BME280;57587;55.688;37.600;2022-08-19T03:59:15;100186.16;;;21.10;48.16
70200;BME280;57587;55.688;37.600;2022-08-19T04:01:42;100185.31;;;21.22;48.04
70200;BME280;57587;55.688;37.600;2022-08-19T04:04:09;100189.31;;;21.31;47.72
70200;BME280;57587;55.688;37.600;2022-08-19T04:06:38;100191.13;;;21.37;47.42
70200;BME280;57587;55.688;37.600;2022-08-19T04:09:10;100196.09;;;21.40;47.55
70200;BME280;57587;55.688;37.600;2022-08-19T04:11:44;100207.66;;;21.47;47.65
70200;BME280;57587;55.688;37.600;2022-08-19T04:14:15;100201.59;;;21.57;47.55
70200;BME280;57587;55.688;37.600;2022-08-19T04:16:44;100198.03;;;21.68;47.13
70200;BME280;57587;55.688;37.600;2022-08-19T04:19:12;100198.06;;;21.85;46.76
70200;BME280;57587;55.688;37.600;2022-08-19T04:21:40;100199.94;;;21.96;46.36
70200;BME280;57587;55.688;37.600;2022-08-19T04:24:09;100195.16;;;22.03;45.93
70200;BME280;57587;55.688;37.600;2022-08-19T04:26:37;100202.56;;;22.08;45.91
70200;BME280;57587;55.688;37.600;2022-08-19T04:29:15;100201.00;;;22.24;45.83
70200;BME280;57587;55.688;37.600;2022-08-19T04:31:43;100196.88;;;22.38;45.60
70200;BME280;57587;55.688;37.600;2022-08-19T04:34:14;100207.16;;;22.65;44.77
70200;BME280;57587;55.688;37.600;2022-08-19T04:36:44;100215.16;;;22.88;44.15
70200;BME280;57587;55.688;37.600;2022-08-19T04:39:15;100211.56;;;23.21;43.61
70200;BME280;57587;55.688;37.600;2022-08-19T04:41:43;100217.75;;;23.56;42.79
70200;BME280;57587;55.688;37.600;2022-08-19T04:44:33;100216.69;;;24.28;40.89
70200;BME280;57587;55.688;37.600;2022-08-19T04:47:03;100215.41;;;24.63;40.10
70200;BME280;57587;55.688;37.600;2022-08-19T04:49:37;100212.47;;;24.42;40.45
70200;BME280;57587;55.688;37.600;2022-08-19T04:52:04;100210.38;;;24.87;40.09
70200;BME280;57587;55.688;37.600;2022-08-19T04:54:31;100215.78;;;25.66;38.41
70200;BME280;57587;55.688;37.600;2022-08-19T04:57:08;100214.88;;;26.24;36.59
70200;BME280;57587;55.688;37.600;2022-08-19T04:59:38;100205.00;;;26.33;36.80
70200;BME280;57587;55.688;37.600;2022-08-19T05:02:07;100202.53;;;26.11;36.77
70200;BME280;57587;55.688;37.600;2022-08-19T05:04:36;100211.56;;;26.11;37.23
70200;BME280;57587;55.688;37.600;2022-08-19T05:07:07;100211.03;;;26.30;36.77
70200;BME280;57587;55.688;37.600;2022-08-19T05:09:35;100208.81;;;26.16;37.08
70200;BME280;57587;55.688;37.600;2022-08-19T05:12:22;100215.69;;;26.19;37.04
70200;BME280;57587;55.688;37.600;2022-08-19T05:14:56;100217.59;;;26.18;36.89
70200;BME280;57587;55.688;37.600;2022-08-19T05:17:25;100205.81;;;26.18;37.07
70200;BME280;57587;55.688;37.600;2022-08-19T05:19:56;100222.28;;;26.28;36.74
70200;BME280;57587;55.688;37.600;2022-08-19T05:22:44;100214.31;;;26.21;37.08
70200;BME280;57587;55.688;37.600;2022-08-19T05:25:14;100215.41;;;26.15;37.63
70200;BME280;57587;55.688;37.600;2022-08-19T05:27:42;100214.03;;;26.08;37.12
70200;BME280;57587;55.688;37.600;2022-08-19T05:30:10;100209.91;;;26.05;37.73
70200;BME280;57587;55.688;37.600;2022-08-19T05:32:39;100211.25;;;26.03;37.62
70200;BME280;57587;55.688;37.600;2022-08-19T05:35:06;100207.28;;;25.73;38.05
70200;BME280;57587;55.688;37.600;2022-08-19T05:37:34;100207.28;;;25.73;38.16
70200;BME280;57587;55.688;37.600;2022-08-19T05:40:01;100216.56;;;25.57;38.57
70200;BME280;57587;55.688;37.600;2022-08-19T05:42:36;100212.44;;;25.49;38.57
70200;BME280;57587;55.688;37.600;2022-08-19T05:45:04;100214.31;;;25.48;38.51
70200;BME280;57587;55.688;37.600;2022-08-19T05:47:31;100214.03;;;25.40;39.22
70200;BME280;57587;55.688;37.600;2022-08-19T05:49:58;100209.28;;;25.30;39.14
70200;BME280;57587;55.688;37.600;2022-08-19T05:52:26;100219.03;;;25.58;38.61
70200;BME280;57587;55.688;37.600;2022-08-19T05:54:56;100212.31;;;25.81;38.43
70200;BME280;57587;55.688;37.600;2022-08-19T05:57:30;100212.38;;;26.07;38.00
70200;BME280;57587;55.688;37.600;2022-08-19T05:59:57;100214.59;;;26.30;37.78
70200;BME280;57587;55.688;37.600;2022-08-19T06:02:29;100209.41;;;26.44;36.80
70200;BME280;57587;55.688;37.600;2022-08-19T06:04:57;100215.22;;;26.73;37.11
70200;BME280;57587;55.688;37.600;2022-08-19T06:07:25;100219.03;;;26.82;36.30
70200;BME280;57587;55.688;37.600;2022-08-19T06:09:55;100209.16;;;26.66;36.44
70200;BME280;57587;55.688;37.600;2022-08-19T06:12:30;100217.09;;;26.93;36.11
70200;BME280;57587;55.688;37.600;2022-08-19T06:15:08;100223.63;;;27.33;35.37
70200;BME280;57587;55.688;37.600;2022-08-19T06:17:35;100222.47;;;27.59;34.95
70200;BME280;57587;55.688;37.600;2022-08-19T06:20:08;100228.88;;;27.29;35.79
70200;BME280;57587;55.688;37.600;2022-08-19T06:22:43;100218.72;;;27.09;36.42
70200;BME280;57587;55.688;37.600;2022-08-19T06:25:12;100218.44;;;27.26;35.79
70200;BME280;57587;55.688;37.600;2022-08-19T06:27:40;100216.97;;;27.49;35.11
70200;BME280;57587;55.688;37.600;2022-08-19T06:30:28;100235.03;;;27.71;34.82
70200;BME280;57587;55.688;37.600;2022-08-19T06:32:55;100223.91;;;27.42;35.32
70200;BME280;57587;55.688;37.600;2022-08-19T06:35:22;100217.63;;;27.00;35.93
70200;BME280;57587;55.688;37.600;2022-08-19T06:37:49;100209.97;;;26.56;36.77
70200;BME280;57587;55.688;37.600;2022-08-19T06:40:16;100209.09;;;26.35;37.47
70200;BME280;57587;55.688;37.600;2022-08-19T06:42:43;100220.34;;;26.29;37.77
70200;BME280;57587;55.688;37.600;2022-08-19T06:45:22;100211.56;;;26.11;37.93
70200;BME280;57587;55.688;37.600;2022-08-19T06:48:01;100229.63;;;25.97;38.57
70200;BME280;57587;55.688;37.600;2022-08-19T06:50:29;100220.25;;;25.88;38.62
70200;BME280;57587;55.688;37.600;2022-08-19T06:52:56;100216.88;;;25.65;38.66
70200;BME280;57587;55.688;37.600;2022-08-19T06:55:26;100220.13;;;25.57;38.78
70200;BME280;57587;55.688;37.600;2022-08-19T06:58:02;100223.06;;;25.45;39.40
70200;BME280;57587;55.688;37.600;2022-08-19T07:00:30;100224.50;;;25.53;39.33
70200;BME280;57587;55.688;37.600;2022-08-19T07:03:02;100229.69;;;25.49;39.26
70200;BME280;57587;55.688;37.600;2022-08-19T07:05:40;100227.28;;;25.63;39.02
70200;BME280;57587;55.688;37.600;2022-08-19T07:08:12;100227.34;;;25.79;38.83
70200;BME280;57587;55.688;37.600;2022-08-19T07:10:44;100224.16;;;26.02;38.14
70200;BME280;57587;55.688;37.600;2022-08-19T07:13:14;100229.97;;;26.31;37.19
70200;BME280;57587;55.688;37.600;2022-08-19T07:15:42;100229.72;;;26.48;37.22
70200;BME280;57587;55.688;37.600;2022-08-19T07:18:09;100226.75;;;26.70;36.82
70200;BME280;57587;55.688;37.600;2022-08-19T07:20:38;100221.19;;;27.11;35.57
70200;BME280;57587;55.688;37.600;2022-08-19T07:23:08;100227.31;;;27.88;34.49
70200;BME280;57587;55.688;37.600;2022-08-19T07:25:44;100223.28;;;28.59;32.71
70200;BME280;57587;55.688;37.600;2022-08-19T07:28:19;100222.09;;;29.29;31.69
70200;BME280;57587;55.688;37.600;2022-08-19T07:30:51;100231.81;;;29.93;30.99
70200;BME280;57587;55.688;37.600;2022-08-19T07:33:21;100228.28;;;30.06;30.20
70200;BME280;57587;55.688;37.600;2022-08-19T07:35:48;100228.00;;;30.46;29.93
70200;BME280;57587;55.688;37.600;2022-08-19T07:38:16;100224.47;;;30.59;29.35
70200;BME280;57587;55.688;37.600;2022-08-19T07:40:44;100235.91;;;30.15;29.76
70200;BME280;57587;55.688;37.600;2022-08-19T07:43:13;100239.16;;;29.31;30.41
70200;BME280;57587;55.688;37.600;2022-08-19T07:45:44;100246.34;;;28.98;31.11
70200;BME280;57587;55.688;37.600;2022-08-19T07:48:13;100230.13;;;28.96;31.33
70200;BME280;57587;55.688;37.600;2022-08-19T07:51:06;100241.25;;;29.15;30.56
70200;BME280;57587;55.688;37.600;2022-08-19T07:53:43;100243.94;;;29.73;29.84
70200;BME280;57587;55.688;37.600;2022-08-19T07:56:13;100236.94;;;30.56;28.38
70200;BME280;57587;55.688;37.600;2022-08-19T07:58:42;100235.78;;;30.95;27.75
70200;BME280;57587;55.688;37.600;2022-08-19T08:01:19;100243.09;;;31.19;27.35
70200;BME280;57587;55.688;37.600;2022-08-19T08:03:48;100229.75;;;31.07;27.37
70200;BME280;57587;55.688;37.600;2022-08-19T08:06:34;100250.81;;;31.03;28.17
70200;BME280;57587;55.688;37.600;2022-08-19T08:09:36;100250.41;;;30.96;27.63
70200;BME280;57587;55.688;37.600;2022-08-19T08:12:07;100247.44;;;31.39;27.64
70200;BME280;57587;55.688;37.600;2022-08-19T08:14:59;100246.41;;;31.62;27.67
70200;BME280;57587;55.688;37.600;2022-08-19T08:17:30;100247.22;;;31.49;27.29
70200;BME280;57587;55.688;37.600;2022-08-19T08:20:16;100252.38;;;32.20;26.56
70200;BME280;57587;55.688;37.600;2022-08-19T08:22:47;100255.66;;;32.22;27.05
70200;BME280;57587;55.688;37.600;2022-08-19T08:25:34;100257.75;;;32.38;26.40
70200;BME280;57587;55.688;37.600;2022-08-19T08:28:03;100262.88;;;32.45;26.69
70200;BME280;57587;55.688;37.600;2022-08-19T08:30:30;100256.25;;;31.41;27.71
70200;BME280;57587;55.688;37.600;2022-08-19T08:32:59;100241.59;;;30.75;28.55
70200;BME280;57587;55.688;37.600;2022-08-19T08:35:28;100251.91;;;30.37;29.57
70200;BME280;57587;55.688;37.600;2022-08-19T08:37:56;100250.78;;;29.95;29.82
70200;BME280;57587;55.688;37.600;2022-08-19T08:48:54;100240.69;;;29.18;31.25
70200;BME280;57587;55.688;37.600;2022-08-19T08:51:23;100251.53;;;29.33;30.45
70200;BME280;57587;55.688;37.600;2022-08-19T08:54:01;100237.75;;;29.33;30.07
70200;BME280;57587;55.688;37.600;2022-08-19T08:56:43;100242.94;;;29.64;29.86
70200;BME280;57587;55.688;37.600;2022-08-19T08:59:20;100236.84;;;30.29;28.72
70200;BME280;57587;55.688;37.600;2022-08-19T09:01:48;100251.53;;;30.24;28.67
70200;BME280;57587;55.688;37.600;2022-08-19T09:04:16;100255.31;;;30.28;27.70
70200;BME280;57587;55.688;37.600;2022-08-19T09:06:53;100256.41;;;29.90;27.89
70200;BME280;57587;55.688;37.600;2022-08-19T09:09:32;100265.91;;;29.78;28.41
70200;BME280;57587;55.688;37.600;2022-08-19T09:14:50;100247.16;;;31.08;27.37
70200;BME280;57587;55.688;37.600;2022-08-19T09:17:24;100252.63;;;30.80;27.59
70200;BME280;57587;55.688;37.600;2022-08-19T09:20:18;100242.97;;;31.10;27.28
70200;BME280;57587;55.688;37.600;2022-08-19T09:22:43;100247.97;;;31.08;26.97
70200;BME280;57587;55.688;37.600;2022-08-19T09:25:14;100251.41;;;31.00;27.64
70200;BME280;57587;55.688;37.600;2022-08-19T09:27:42;100247.56;;;31.01;27.14
70200;BME280;57587;55.688;37.600;2022-08-19T09:30:18;100248.72;;;31.28;26.54
70200;BME280;57587;55.688;37.600;2022-08-19T09:32:50;100256.63;;;31.62;26.73
70200;BME280;57587;55.688;37.600;2022-08-19T09:35:23;100250.38;;;31.84;26.45
70200;BME280;57587;55.688;37.600;2022-08-19T09:37:56;100263.19;;;31.38;27.19
70200;BME280;57587;55.688;37.600;2022-08-19T09:40:27;100259.19;;;30.65;27.71
70200;BME280;57587;55.688;37.600;2022-08-19T09:42:57;100257.78;;;30.49;28.19
70200;BME280;57587;55.688;37.600;2022-08-19T09:45:27;100260.00;;;30.66;27.86
70200;BME280;57587;55.688;37.600;2022-08-19T09:47:56;100255.84;;;30.30;27.88
70200;BME280;57587;55.688;37.600;2022-08-19T09:50:23;100271.38;;;30.26;27.96
70200;BME280;57587;55.688;37.600;2022-08-19T09:52:51;100264.88;;;30.36;27.82
70200;BME280;57587;55.688;37.600;2022-08-19T09:55:24;100256.81;;;30.21;26.23
70200;BME280;57587;55.688;37.600;2022-08-19T09:58:01;100258.66;;;29.63;25.28
70200;BME280;57587;55.688;37.600;2022-08-19T10:00:29;100249.81;;;29.37;24.50
70200;BME280;57587;55.688;37.600;2022-08-19T10:02:57;100269.91;;;29.14;23.18
70200;BME280;57587;55.688;37.600;2022-08-19T10:05:25;100267.56;;;29.02;23.79
70200;BME280;57587;55.688;37.600;2022-08-19T10:08:27;100278.41;;;28.83;24.06
70200;BME280;57587;55.688;37.600;2022-08-19T10:10:55;100276.88;;;28.72;24.23
70200;BME280;57587;55.688;37.600;2022-08-19T10:13:27;100271.94;;;28.69;24.95
70200;BME280;57587;55.688;37.600;2022-08-19T10:15:56;100283.66;;;28.45;25.88
70200;BME280;57587;55.688;37.600;2022-08-19T10:18:24;100282.47;;;28.57;25.52
70200;BME280;57587;55.688;37.600;2022-08-19T10:20:52;100269.25;;;28.59;24.87
70200;BME280;57587;55.688;37.600;2022-08-19T10:23:21;100273.97;;;28.53;24.29
70200;BME280;57587;55.688;37.600;2022-08-19T10:25:48;100286.94;;;28.47;23.71
70200;BME280;57587;55.688;37.600;2022-08-19T10:28:16;100276.09;;;28.61;23.81
70200;BME280;57587;55.688;37.600;2022-08-19T10:30:51;100288.09;;;28.36;24.44
70200;BME280;57587;55.688;37.600;2022-08-19T10:33:22;100287.56;;;28.34;23.74
70200;BME280;57587;55.688;37.600;2022-08-19T10:36:12;100279.31;;;28.29;23.43
70200;BME280;57587;55.688;37.600;2022-08-19T10:38:46;100276.50;;;28.39;22.79
70200;BME280;57587;55.688;37.600;2022-08-19T10:41:23;100271.56;;;28.46;22.54
70200;BME280;57587;55.688;37.600;2022-08-19T10:43:52;100284.50;;;28.36;22.07
70200;BME280;57587;55.688;37.600;2022-08-19T10:46:25;100282.91;;;28.30;21.45
70200;BME280;57587;55.688;37.600;2022-08-19T10:48:53;100281.00;;;28.25;22.02
70200;BME280;57587;55.688;37.600;2022-08-19T10:51:21;100267.25;;;28.25;21.83
70200;BME280;57587;55.688;37.600;2022-08-19T10:54:15;100276.41;;;28.10;22.05
70200;BME280;57587;55.688;37.600;2022-08-19T10:56:42;100291.94;;;27.86;22.35
70200;BME280;57587;55.688;37.600;2022-08-19T10:59:29;100317.19;;;27.98;22.00
70200;BME280;57587;55.688;37.600;2022-08-19T11:02:03;100294.97;;;27.74;21.77
70200;BME280;57587;55.688;37.600;2022-08-19T11:04:31;100286.75;;;27.58;22.20
70200;BME280;57587;55.688;37.600;2022-08-19T11:06:59;100284.31;;;27.52;22.44
70200;BME280;57587;55.688;37.600;2022-08-19T11:09:26;100281.81;;;27.55;22.76
70200;BME280;57587;55.688;37.600;2022-08-19T11:12:00;100279.66;;;27.37;23.71
70200;BME280;57587;55.688;37.600;2022-08-19T11:14:31;100274.69;;;27.49;23.43
70200;BME280;57587;55.688;37.600;2022-08-19T11:17:00;100281.25;;;27.58;23.43
70200;BME280;57587;55.688;37.600;2022-08-19T11:19:27;100276.81;;;27.73;23.42
70200;BME280;57587;55.688;37.600;2022-08-19T11:21:55;100268.59;;;27.68;23.16
70200;BME280;57587;55.688;37.600;2022-08-19T11:24:25;100269.97;;;27.70;23.23
70200;BME280;57587;55.688;37.600;2022-08-19T11:26:55;100274.13;;;27.57;23.74
70200;BME280;57587;55.688;37.600;2022-08-19T11:29:26;100274.13;;;27.57;23.84
70200;BME280;57587;55.688;37.600;2022-08-19T11:31:54;100236.25;;;27.34;23.87
70200;BME280;57587;55.688;37.600;2022-08-19T11:34:24;100259.13;;;27.14;24.54
70200;BME280;57587;55.688;37.600;2022-08-19T11:36:55;100263.78;;;26.98;24.40
70200;BME280;57587;55.688;37.600;2022-08-19T11:39:27;100264.31;;;26.90;23.58
70200;BME280;57587;55.688;37.600;2022-08-19T11:41:54;100270.91;;;26.84;24.51
70200;BME280;57587;55.688;37.600;2022-08-19T11:44:22;100275.31;;;26.90;24.43
70200;BME280;57587;55.688;37.600;2022-08-19T11:46:49;100266.25;;;26.84;24.71
70200;BME280;57587;55.688;37.600;2022-08-19T11:49:17;100281.91;;;26.74;25.86
70200;BME280;57587;55.688;37.600;2022-08-19T11:51:48;100272.84;;;26.78;25.91
70200;BME280;57587;55.688;37.600;2022-08-19T11:54:19;100261.31;;;26.71;26.45
70200;BME280;57587;55.688;37.600;2022-08-19T11:56:47;100276.97;;;26.60;27.42
70200;BME280;57587;55.688;37.600;2022-08-19T11:59:15;100273.59;;;26.38;27.99
70200;BME280;57587;55.688;37.600;2022-08-19T12:01:42;100263.41;;;26.23;28.64
70200;BME280;57587;55.688;37.600;2022-08-19T12:04:10;100265.88;;;26.14;28.66
70200;BME280;57587;55.688;37.600;2022-08-19T12:06:38;100254.34;;;26.17;29.01
70200;BME280;57587;55.688;37.600;2022-08-19T12:09:07;100268.06;;;26.17;29.19
70200;BME280;57587;55.688;37.600;2022-08-19T12:11:37;100251.06;;;26.20;29.48
70200;BME280;57587;55.688;37.600;2022-08-19T12:14:06;100244.47;;;26.16;29.56
70200;BME280;57587;55.688;37.600;2022-08-19T12:16:33;100249.97;;;26.21;29.82
70200;BME280;57587;55.688;37.600;2022-08-19T12:19:05;100252.69;;;26.16;30.21
70200;BME280;57587;55.688;37.600;2022-08-19T12:21:34;100251.59;;;26.12;29.85
70200;BME280;57587;55.688;37.600;2022-08-19T12:24:02;100255.16;;;26.23;30.35
70200;BME280;57587;55.688;37.600;2022-08-19T12:26:30;100247.22;;;26.21;30.43
70200;BME280;57587;55.688;37.600;2022-08-19T12:28:58;100246.97;;;26.28;30.34
70200;BME280;57587;55.688;37.600;2022-08-19T12:31:27;100242.84;;;26.31;30.15
70200;BME280;57587;55.688;37.600;2022-08-19T12:33:55;100252.72;;;26.32;30.39
70200;BME280;57587;55.688;37.600;2022-08-19T12:36:22;100238.75;;;26.33;30.41
70200;BME280;57587;55.688;37.600;2022-08-19T12:38:52;100251.09;;;26.31;30.76
70200;BME280;57587;55.688;37.600;2022-08-19T12:41:20;100248.31;;;26.26;31.07
70200;BME280;57587;55.688;37.600;2022-08-19T12:43:49;100263.16;;;26.25;30.99
70200;BME280;57587;55.688;37.600;2022-08-19T12:46:20;100246.69;;;26.25;31.66
70200;BME280;57587;55.688;37.600;2022-08-19T12:48:51;100246.13;;;26.17;31.83
70200;BME280;57587;55.688;37.600;2022-08-19T12:51:22;100252.72;;;26.27;31.21
70200;BME280;57587;55.688;37.600;2022-08-19T12:53:52;100240.66;;;26.28;31.34
70200;BME280;57587;55.688;37.600;2022-08-19T12:56:19;100271.94;;;26.27;31.34
70200;BME280;57587;55.688;37.600;2022-08-19T12:58:49;100258.72;;;26.08;31.69
70200;BME280;57587;55.688;37.600;2022-08-19T13:01:19;100252.66;;;26.06;32.27
70200;BME280;57587;55.688;37.600;2022-08-19T13:03:49;100249.91;;;25.96;31.93
70200;BME280;57587;55.688;37.600;2022-08-19T13:06:16;100261.41;;;25.98;32.03
70200;BME280;57587;55.688;37.600;2022-08-19T13:08:46;100257.06;;;26.02;31.84
70200;BME280;57587;55.688;37.600;2022-08-19T13:11:18;100262.25;;;26.04;32.15
70200;BME280;57587;55.688;37.600;2022-08-19T13:13:48;100264.75;;;26.05;31.78
70200;BME280;57587;55.688;37.600;2022-08-19T13:16:17;100258.72;;;26.08;31.87
70200;BME280;57587;55.688;37.600;2022-08-19T13:18:45;100264.16;;;25.98;31.94